createdAt,value
2022-12-19T00:00:52.016Z,35.70
2022-12-19T00:03:22.007Z,39.72
2022-12-19T00:05:52.072Z,45.45
2022-12-19T00:08:24.772Z,32.47
2022-12-19T00:11:01.254Z,44.63
2022-12-19T00:13:39.943Z,35.83
2022-12-19T00:16:15.671Z,40.90
2022-12-19T00:18:51.066Z,38.55
2022-12-19T00:21:28.199Z,50.05
2022-12-19T00:23:58.641Z,52.65
2022-12-19T00:26:33.874Z,56.47
2022-12-19T00:29:11.158Z,56.55
2022-12-19T00:31:44.039Z,70.78
2022-12-19T00:34:14.045Z,69.65
2022-12-19T00:36:44.010Z,80.57
2022-12-19T00:39:13.933Z,75.63
2022-12-19T00:41:44.741Z,56.30
2022-12-19T00:44:16.282Z,44.05
2022-12-19T00:46:52.816Z,40.42
2022-12-19T00:49:23.732Z,42.58
2022-12-19T00:51:53.633Z,35.80
2022-12-19T00:54:23.470Z,31.25
2022-12-19T00:56:53.453Z,30.50
2022-12-19T00:59:26.389Z,33.60
2022-12-19T01:01:57.460Z,34.03
2022-12-19T01:04:28.544Z,38.22
2022-12-19T01:07:01.754Z,34.90
2022-12-19T01:09:33.424Z,39.03
2022-12-19T01:12:24.413Z,33.05
2022-12-19T01:14:58.777Z,44.72
2022-12-19T01:17:43.693Z,49.03
2022-12-19T01:20:20.219Z,36.58
2022-12-19T01:23:00.707Z,40.72
2022-12-19T01:25:30.928Z,28.70
2022-12-19T01:28:00.853Z,34.30
2022-12-19T01:30:31.291Z,26.77
2022-12-19T01:33:03.421Z,37.83
2022-12-19T01:35:33.259Z,41.80
2022-12-19T01:38:08.486Z,31.10
2022-12-19T01:40:39.057Z,35.15
2022-12-19T01:43:14.598Z,44.65
2022-12-19T01:45:46.103Z,37.40
2022-12-19T01:48:30.313Z,37.38
2022-12-19T01:51:04.884Z,28.80
2022-12-19T01:53:49.183Z,38.20
2022-12-19T01:56:24.060Z,37.28
2022-12-19T01:59:05.818Z,35.10
2022-12-19T02:01:51.048Z,41.88
2022-12-19T02:04:23.016Z,29.48
2022-12-19T02:06:53.923Z,23.88
2022-12-19T02:09:23.639Z,29.10
2022-12-19T02:11:53.466Z,32.70
2022-12-19T02:14:23.394Z,31.90
2022-12-19T02:17:12.784Z,33.42
2022-12-19T02:20:15.058Z,27.90
2022-12-19T02:23:24.629Z,34.30
2022-12-19T02:26:17.724Z,32.67
2022-12-19T02:29:25.930Z,31.55
2022-12-19T02:32:09.372Z,29.02
2022-12-19T02:34:46.416Z,27.20
2022-12-19T02:37:34.691Z,28.15
2022-12-19T02:42:50.382Z,29.17
2022-12-19T02:45:28.379Z,24.90
2022-12-19T02:48:05.815Z,27.10
2022-12-19T02:50:44.270Z,40.10
2022-12-19T02:53:17.174Z,25.98
2022-12-19T02:56:29.341Z,29.73
2022-12-19T02:59:28.048Z,27.90
2022-12-19T03:02:18.090Z,32.83
2022-12-19T03:05:01.783Z,25.77
2022-12-19T03:07:51.554Z,29.52
2022-12-19T03:10:45.973Z,25.02
2022-12-19T03:13:41.784Z,21.38
2022-12-19T03:16:13.295Z,24.02
2022-12-19T03:18:44.048Z,19.40
2022-12-19T03:21:27.345Z,22.73
2022-12-19T03:23:59.542Z,28.45
2022-12-19T03:26:35.995Z,24.88
2022-12-19T03:29:34.770Z,22.30
2022-12-19T03:32:09.326Z,22.83
2022-12-19T03:34:49.236Z,25.27
2022-12-19T03:37:23.147Z,21.58
2022-12-19T03:39:59.514Z,21.85
2022-12-19T03:42:52.340Z,23.05
2022-12-19T03:45:32.960Z,27.60
2022-12-19T03:48:09.464Z,32.17
2022-12-19T03:50:56.472Z,22.42
2022-12-19T03:53:52.391Z,25.95
2022-12-19T03:56:49.053Z,19.70
2022-12-19T03:59:32.626Z,18.98
2022-12-19T04:02:04.700Z,26.05
2022-12-19T04:04:41.443Z,22.85
2022-12-19T04:07:12.710Z,20.38
2022-12-19T04:09:45.169Z,28.02
2022-12-19T04:12:21.631Z,21.90
2022-12-19T04:14:52.628Z,18.33
2022-12-19T04:17:50.118Z,22.98
2022-12-19T04:20:22.979Z,21.98
2022-12-19T04:23:20.081Z,21.25
2022-12-19T04:25:53.798Z,24.55
2022-12-19T04:28:47.732Z,21.35
2022-12-19T04:31:19.262Z,18.15
2022-12-19T04:33:49.183Z,25.48
2022-12-19T04:36:19.397Z,18.75
2022-12-19T04:38:49.314Z,25.98
2022-12-19T04:41:19.191Z,20.17
2022-12-19T04:43:49.154Z,23.90
2022-12-19T04:46:19.093Z,23.58
2022-12-19T04:48:49.067Z,18.50
2022-12-19T04:51:19.116Z,19.23
2022-12-19T04:53:48.968Z,16.83
2022-12-19T04:56:18.955Z,26.17
2022-12-19T04:58:49.063Z,17.33
2022-12-19T05:01:20.162Z,17.33
2022-12-19T05:03:54.323Z,15.73
2022-12-19T05:06:26.168Z,25.83
2022-12-19T05:08:56.085Z,18.08
2022-12-19T05:11:25.922Z,25.23
2022-12-19T05:13:55.803Z,17.10
2022-12-19T05:16:25.706Z,15.77
2022-12-19T05:18:57.029Z,19.17
2022-12-19T05:21:27.105Z,22.02
2022-12-19T05:23:57.565Z,19.15
2022-12-19T05:26:28.426Z,19.77
2022-12-19T05:28:58.408Z,20.80
2022-12-19T05:31:28.486Z,19.92
2022-12-19T05:33:58.527Z,16.55
2022-12-19T05:36:32.438Z,19.45
2022-12-19T05:39:02.958Z,17.80
2022-12-19T05:41:32.903Z,20.33
2022-12-19T05:44:02.950Z,31.45
2022-12-19T05:46:32.949Z,26.02
2022-12-19T05:49:02.810Z,15.27
2022-12-19T05:51:33.333Z,18.02
2022-12-19T05:54:03.794Z,22.90
2022-12-19T05:56:33.873Z,17.48
2022-12-19T05:59:03.783Z,28.60
2022-12-19T06:01:34.114Z,24.27
2022-12-19T06:04:04.093Z,18.65
2022-12-19T06:06:34.071Z,21.67
2022-12-19T06:09:04.424Z,23.70
2022-12-19T06:11:34.334Z,20.35
2022-12-19T06:14:04.318Z,17.95
2022-12-19T06:16:34.246Z,17.15
2022-12-19T06:19:04.329Z,22.00
2022-12-19T06:21:34.170Z,18.60
2022-12-19T06:24:04.091Z,19.15
2022-12-19T06:26:34.502Z,22.52
2022-12-19T06:29:04.057Z,21.83
2022-12-19T06:31:33.643Z,16.63
2022-12-19T06:34:04.211Z,20.52
2022-12-19T06:36:33.854Z,16.58
2022-12-19T06:39:03.471Z,24.23
2022-12-19T06:41:52.701Z,18.55
2022-12-19T06:44:22.300Z,19.75
2022-12-19T06:46:53.907Z,18.27
2022-12-19T06:49:23.507Z,21.42
2022-12-19T06:51:53.162Z,15.65
2022-12-19T06:54:22.845Z,20.17
2022-12-19T06:56:52.350Z,30.33
2022-12-19T06:59:21.908Z,17.50
2022-12-19T07:02:20.618Z,19.05
2022-12-19T07:04:54.198Z,15.60
2022-12-19T07:07:23.769Z,15.57
2022-12-19T07:09:53.408Z,14.68
2022-12-19T07:12:22.989Z,21.42
2022-12-19T07:14:53.756Z,14.88
2022-12-19T07:17:26.116Z,17.75
2022-12-19T07:20:00.470Z,19.65
2022-12-19T07:22:35.159Z,17.45
2022-12-19T07:25:06.274Z,18.52
2022-12-19T07:27:37.655Z,17.83
2022-12-19T07:30:09.515Z,22.25
2022-12-19T07:32:39.207Z,16.30
2022-12-19T07:35:09.759Z,19.45
2022-12-19T07:37:39.342Z,33.10
2022-12-19T07:40:09.494Z,20.17
2022-12-19T07:42:39.091Z,18.10
2022-12-19T07:45:09.231Z,14.70
2022-12-19T07:47:38.769Z,21.58
2022-12-19T07:50:08.576Z,20.27
2022-12-19T07:52:38.281Z,17.70
2022-12-19T07:55:08.246Z,16.30
2022-12-19T07:57:37.790Z,20.92
2022-12-19T08:00:08.372Z,15.43
2022-12-19T08:02:38.372Z,16.15
2022-12-19T08:05:08.480Z,23.05
2022-12-19T08:07:38.187Z,15.35
2022-12-19T08:10:08.652Z,19.10
2022-12-19T08:12:38.231Z,30.95
2022-12-19T08:15:08.669Z,38.08
2022-12-19T08:17:42.314Z,49.72
2022-12-19T08:20:15.814Z,25.15
2022-12-19T08:22:45.436Z,18.40
2022-12-19T08:25:14.983Z,23.45
2022-12-19T08:27:45.576Z,15.80
2022-12-19T08:30:15.714Z,22.15
2022-12-19T08:32:46.744Z,21.67
2022-12-19T08:35:16.373Z,18.63
2022-12-19T08:37:46.228Z,14.85
2022-12-19T08:40:15.920Z,22.02
2022-12-19T08:42:45.469Z,13.55
2022-12-19T08:45:15.183Z,17.00
2022-12-19T08:47:45.469Z,19.55
2022-12-19T08:50:15.942Z,19.05
2022-12-19T08:52:46.462Z,23.20
2022-12-19T08:55:17.252Z,17.40
2022-12-19T08:57:46.796Z,18.60
2022-12-19T09:00:16.910Z,18.75
2022-12-19T09:02:47.417Z,17.73
2022-12-19T09:06:01.283Z,18.80
2022-12-19T09:08:08.048Z,18.65
2022-12-19T09:10:41.283Z,17.10
2022-12-19T09:13:10.839Z,18.00
2022-12-19T09:15:40.507Z,21.70
2022-12-19T09:18:11.588Z,12.35
2022-12-19T09:20:41.177Z,20.70
2022-12-19T09:23:10.699Z,19.60
2022-12-19T09:25:40.247Z,23.73
2022-12-19T09:28:27.199Z,19.45
2022-12-19T09:31:06.833Z,16.83
2022-12-19T09:33:43.334Z,12.98
2022-12-19T09:36:19.667Z,18.63
2022-12-19T09:38:50.734Z,16.20
2022-12-19T09:41:39.915Z,22.00
2022-12-19T09:44:48.813Z,12.20
2022-12-19T09:47:27.114Z,24.23
2022-12-19T09:49:57.300Z,21.00
2022-12-19T09:52:51.721Z,17.98
2022-12-19T09:55:35.347Z,14.30
2022-12-19T09:58:14.635Z,17.48
2022-12-19T10:00:55.979Z,21.38
2022-12-19T10:03:48.969Z,13.98
2022-12-19T10:07:12.514Z,15.52
2022-12-19T10:11:52.917Z,17.02
2022-12-19T10:12:45.128Z,16.00
2022-12-19T10:15:43.211Z,18.60
2022-12-19T10:18:44.088Z,19.00
2022-12-19T10:22:16.221Z,22.10
2022-12-19T10:25:13.710Z,17.60
2022-12-19T10:28:16.167Z,14.00
2022-12-19T10:31:05.103Z,22.88
2022-12-19T10:34:08.137Z,19.88
2022-12-19T10:39:50.988Z,11.07
2022-12-19T10:43:02.597Z,19.55
2022-12-19T10:45:50.446Z,16.40
2022-12-19T10:48:30.975Z,19.45
2022-12-19T10:51:06.078Z,16.98
2022-12-19T10:53:37.025Z,23.63
2022-12-19T10:56:33.183Z,19.67
2022-12-19T10:59:17.848Z,21.58
2022-12-19T11:01:51.770Z,23.55
2022-12-19T11:04:37.852Z,13.48
2022-12-19T11:07:20.093Z,15.50
2022-12-19T11:10:36.454Z,24.55
2022-12-19T11:17:39.014Z,29.35
2022-12-19T11:20:07.516Z,49.70
2022-12-19T11:26:53.149Z,61.20
2022-12-19T11:29:42.718Z,67.22
2022-12-19T11:30:48.180Z,55.40
2022-12-19T11:30:59.409Z,75.10
2022-12-19T11:33:34.879Z,38.28
2022-12-19T11:36:08.075Z,30.17
2022-12-19T11:38:57.441Z,37.00
2022-12-19T11:41:44.618Z,29.45
2022-12-19T11:44:41.335Z,33.40
2022-12-19T11:47:38.968Z,32.35
2022-12-19T11:50:21.620Z,29.80
2022-12-19T11:53:19.111Z,40.92
2022-12-19T11:58:24.271Z,42.55
2022-12-19T12:01:33.043Z,55.05
2022-12-19T12:04:36.013Z,39.05
2022-12-19T12:07:30.610Z,53.92
2022-12-19T12:14:58.331Z,46.63
2022-12-19T12:21:38.693Z,42.97
2022-12-19T12:30:03.732Z,47.03
2022-12-19T12:31:08.219Z,45.38
2022-12-19T12:31:10.493Z,50.92
2022-12-19T12:31:50.789Z,45.58
2022-12-19T12:31:52.575Z,42.65
2022-12-19T12:35:31.718Z,41.25
2022-12-19T12:39:03.075Z,42.42
2022-12-19T12:42:07.449Z,49.80
2022-12-19T12:44:46.238Z,63.10
2022-12-19T12:47:26.321Z,87.88
2022-12-19T12:50:09.070Z,74.50
2022-12-19T12:52:45.863Z,59.83
2022-12-19T12:55:26.178Z,45.53
2022-12-19T12:57:55.824Z,52.70
2022-12-19T13:00:30.843Z,58.58
2022-12-19T13:03:13.230Z,57.83
2022-12-19T13:05:56.546Z,69.70
2022-12-19T13:08:50.241Z,93.38
2022-12-19T13:12:00.750Z,87.53
2022-12-19T13:14:51.198Z,70.05
2022-12-19T13:17:41.766Z,67.13
2022-12-19T13:20:48.603Z,71.88
2022-12-19T13:23:45.111Z,75.78
2022-12-19T13:26:54.060Z,65.50
2022-12-19T13:29:34.331Z,74.82
2022-12-19T13:32:16.251Z,82.32
2022-12-19T13:36:41.185Z,72.00
2022-12-19T13:39:56.402Z,68.35
2022-12-19T13:41:50.332Z,75.72
2022-12-19T13:44:24.842Z,63.13
2022-12-19T13:46:57.087Z,69.57
2022-12-19T13:49:34.719Z,64.55
2022-12-19T13:54:47.430Z,67.07
2022-12-19T13:57:29.852Z,65.47
2022-12-19T14:00:08.791Z,64.93
2022-12-19T14:02:45.357Z,61.22
2022-12-19T14:06:18.689Z,68.18
2022-12-19T14:08:27.597Z,71.53
2022-12-19T14:11:34.423Z,65.72
2022-12-19T14:14:27.681Z,68.53
2022-12-19T14:17:07.297Z,59.85
2022-12-19T14:19:42.548Z,59.85
2022-12-19T14:22:29.167Z,55.63
2022-12-19T14:25:45.107Z,60.17
2022-12-19T14:28:16.786Z,54.75
2022-12-19T14:31:03.893Z,57.20
2022-12-19T14:34:04.312Z,58.92
2022-12-19T14:36:35.886Z,53.65
2022-12-19T14:39:27.906Z,47.47
2022-12-19T14:42:31.558Z,48.00
2022-12-19T14:51:51.454Z,55.65
2022-12-19T14:54:17.042Z,61.67
2022-12-19T14:54:22.463Z,49.25
2022-12-19T14:56:13.564Z,50.70
2022-12-19T14:58:50.645Z,52.60
2022-12-19T15:01:09.439Z,66.22
2022-12-19T15:03:37.523Z,62.95
2022-12-19T15:07:05.214Z,75.03
2022-12-19T15:11:02.373Z,66.85
2022-12-19T15:14:46.843Z,59.83
2022-12-19T15:15:37.929Z,61.00
2022-12-19T15:18:24.484Z,61.35
2022-12-19T15:20:57.516Z,51.13
2022-12-19T15:23:27.921Z,52.83
2022-12-19T15:26:03.939Z,46.00
2022-12-19T15:28:44.232Z,53.60
2022-12-19T15:31:36.754Z,41.08
2022-12-19T15:34:40.202Z,51.38
2022-12-19T15:37:17.771Z,49.67
2022-12-19T15:39:47.962Z,41.00
2022-12-19T15:42:25.627Z,43.78
2022-12-19T15:44:59.015Z,38.22
2022-12-19T15:47:38.475Z,34.13
2022-12-19T15:50:25.799Z,34.75
2022-12-19T15:52:59.201Z,45.50
2022-12-19T15:55:32.606Z,40.22
2022-12-19T15:58:05.562Z,39.63
2022-12-19T16:00:38.306Z,36.45
2022-12-19T16:03:24.838Z,41.15
2022-12-19T16:05:55.646Z,39.75
2022-12-19T16:08:29.898Z,38.60
2022-12-19T16:11:02.182Z,39.50
2022-12-19T16:13:36.428Z,39.60
2022-12-19T16:16:13.133Z,34.35
2022-12-19T16:18:46.210Z,35.97
2022-12-19T16:21:34.317Z,45.58
2022-12-19T16:26:37.549Z,40.67
2022-12-19T16:29:08.231Z,39.95
2022-12-19T16:31:37.888Z,36.42
2022-12-19T16:34:20.921Z,30.40
2022-12-19T16:36:51.592Z,41.72
2022-12-19T16:39:21.436Z,31.48
2022-12-19T16:41:51.707Z,36.70
2022-12-19T16:44:27.219Z,34.88
2022-12-19T16:46:57.112Z,38.13
2022-12-19T16:49:27.129Z,40.13
2022-12-19T16:51:57.068Z,34.97
2022-12-19T16:54:26.959Z,36.13
2022-12-19T16:56:57.021Z,36.50
2022-12-19T16:59:41.856Z,35.72
2022-12-19T17:02:44.090Z,34.30
2022-12-19T17:05:20.483Z,37.40
2022-12-19T17:07:50.813Z,31.90
2022-12-19T17:10:26.089Z,31.52
2022-12-19T17:12:58.641Z,39.75
2022-12-19T17:15:32.974Z,37.78
2022-12-19T17:18:15.654Z,34.20
2022-12-19T17:20:47.690Z,37.33
2022-12-19T17:23:22.156Z,29.70
2022-12-19T17:25:52.700Z,40.28
2022-12-19T17:28:22.604Z,30.80
2022-12-19T17:30:55.564Z,34.20
2022-12-19T17:33:29.790Z,26.77
2022-12-19T17:35:59.684Z,32.90
2022-12-19T17:38:29.575Z,28.98
2022-12-19T17:40:59.836Z,37.70
2022-12-19T17:43:30.120Z,37.50
2022-12-19T17:46:00.465Z,33.38
2022-12-19T17:48:33.340Z,30.60
2022-12-19T17:51:03.219Z,27.17
2022-12-19T17:53:33.073Z,42.13
2022-12-19T17:56:03.028Z,39.67
2022-12-19T17:58:32.940Z,31.75
2022-12-19T18:01:03.220Z,44.28
2022-12-19T18:03:33.358Z,36.90
2022-12-19T18:06:07.277Z,31.48
2022-12-19T18:08:40.217Z,37.70
2022-12-19T18:11:22.220Z,39.97
2022-12-19T18:13:52.376Z,39.67
2022-12-19T18:16:32.507Z,32.58
2022-12-19T18:19:02.254Z,32.90
2022-12-19T18:21:31.789Z,27.30
2022-12-19T18:24:01.324Z,29.08
2022-12-19T18:26:31.880Z,36.13
2022-12-19T18:29:01.454Z,32.55
2022-12-19T18:31:31.199Z,31.77
2022-12-19T18:34:07.306Z,33.35
2022-12-19T18:36:42.470Z,44.78
2022-12-19T18:39:24.145Z,32.42
2022-12-19T18:41:54.279Z,27.77
2022-12-19T18:44:27.352Z,33.38
2022-12-19T18:46:57.347Z,30.75
2022-12-19T18:49:29.625Z,31.33
2022-12-19T18:51:59.683Z,31.77
2022-12-19T18:54:30.844Z,31.00
2022-12-19T18:57:00.722Z,28.35
2022-12-19T18:59:30.665Z,29.50
2022-12-19T19:02:02.266Z,34.03
2022-12-19T19:04:32.320Z,33.85
2022-12-19T19:07:02.204Z,34.67
2022-12-19T19:09:32.208Z,37.35
2022-12-19T19:12:02.369Z,29.67
2022-12-19T19:14:32.811Z,33.83
2022-12-19T19:17:02.801Z,36.42
2022-12-19T19:19:32.906Z,32.78
2022-12-19T19:22:02.839Z,30.98
2022-12-19T19:24:32.913Z,30.90
2022-12-19T19:27:02.812Z,29.90
2022-12-19T19:29:32.864Z,32.80
2022-12-19T19:32:03.342Z,24.60
2022-12-19T19:34:37.295Z,23.77
2022-12-19T19:37:09.696Z,28.27
2022-12-19T19:39:39.578Z,37.05
2022-12-19T19:42:09.699Z,24.40
2022-12-19T19:44:39.569Z,29.48
2022-12-19T19:47:09.522Z,33.83
2022-12-19T19:49:39.547Z,29.88
2022-12-19T19:52:09.760Z,30.35
2022-12-19T19:54:40.019Z,25.02
2022-12-19T19:57:10.007Z,30.63
2022-12-19T19:59:39.957Z,24.13
2022-12-19T20:02:14.648Z,36.25
2022-12-19T20:04:47.311Z,33.53
2022-12-19T20:07:18.992Z,33.58
2022-12-19T20:09:49.018Z,30.25
2022-12-19T20:12:19.202Z,33.10
2022-12-19T20:14:50.184Z,35.47
2022-12-19T20:17:20.120Z,35.22
2022-12-19T20:19:50.173Z,35.97
2022-12-19T20:22:21.054Z,43.65
2022-12-19T20:24:50.923Z,39.15
2022-12-19T20:27:20.823Z,34.17
2022-12-19T20:29:50.707Z,29.67
2022-12-19T20:32:20.674Z,38.35
2022-12-19T20:34:50.593Z,39.55
2022-12-19T20:37:20.631Z,34.65
2022-12-19T20:39:50.590Z,29.52
2022-12-19T20:42:21.104Z,29.23
2022-12-19T20:44:51.036Z,26.50
2022-12-19T20:47:21.024Z,32.28
2022-12-19T20:49:50.951Z,34.45
2022-12-19T20:52:20.993Z,24.23
2022-12-19T20:54:50.874Z,30.00
2022-12-19T20:57:20.795Z,33.55
2022-12-19T20:59:50.689Z,30.10
2022-12-19T21:02:20.722Z,28.23
2022-12-19T21:04:50.862Z,26.42
2022-12-19T21:07:20.621Z,28.02
2022-12-19T21:09:51.969Z,25.77
2022-12-19T21:12:23.469Z,25.33
2022-12-19T21:14:53.639Z,28.85
2022-12-19T21:17:23.705Z,29.95
2022-12-19T21:19:53.706Z,30.58
2022-12-19T21:22:23.596Z,26.80
2022-12-19T21:24:53.548Z,25.35
2022-12-19T21:27:23.507Z,30.05
2022-12-19T21:29:53.528Z,28.20
2022-12-19T21:32:23.435Z,29.08
2022-12-19T21:34:55.381Z,30.92
2022-12-19T21:37:25.865Z,26.90
2022-12-19T21:39:55.783Z,29.88
2022-12-19T21:42:25.693Z,30.30
2022-12-19T21:44:55.639Z,30.35
2022-12-19T21:47:25.657Z,30.52
2022-12-19T21:49:55.550Z,27.95
2022-12-19T21:52:25.432Z,26.05
2022-12-19T21:54:55.360Z,28.27
2022-12-19T21:57:25.304Z,30.02
2022-12-19T21:59:55.219Z,31.10
2022-12-19T22:02:25.306Z,26.00
2022-12-19T22:04:55.048Z,28.23
2022-12-19T22:07:24.683Z,32.13
2022-12-19T22:09:54.299Z,31.05
2022-12-19T22:12:24.116Z,26.95
2022-12-19T22:14:55.811Z,33.50
2022-12-19T22:17:25.432Z,27.38
2022-12-19T22:19:55.014Z,26.45
2022-12-19T22:22:24.607Z,33.05
2022-12-19T22:24:54.191Z,29.77
2022-12-19T22:27:23.714Z,25.63
2022-12-19T22:29:53.317Z,23.45
2022-12-19T22:32:22.892Z,25.77
2022-12-19T22:34:52.458Z,27.63
2022-12-19T22:37:22.396Z,30.63
2022-12-19T22:39:51.945Z,28.90
2022-12-19T22:42:21.512Z,25.58
2022-12-19T22:44:51.065Z,25.88
2022-12-19T22:47:20.863Z,24.00
2022-12-19T22:49:54.054Z,31.58
2022-12-19T22:52:25.216Z,24.08
2022-12-19T22:54:54.769Z,31.50
2022-12-19T22:57:24.382Z,26.75
2022-12-19T22:59:53.902Z,26.40
2022-12-19T23:02:23.686Z,28.40
2022-12-19T23:04:53.503Z,28.70
2022-12-19T23:07:23.137Z,30.77
2022-12-19T23:09:52.780Z,32.25
2022-12-19T23:12:22.350Z,30.20
2022-12-19T23:14:52.138Z,26.52
2022-12-19T23:17:22.166Z,33.00
2022-12-19T23:19:51.707Z,26.83
2022-12-19T23:22:21.221Z,50.40
2022-12-19T23:24:51.048Z,32.22
2022-12-19T23:27:20.564Z,27.23
2022-12-19T23:29:51.807Z,26.63
2022-12-19T23:32:21.569Z,32.83
2022-12-19T23:34:51.282Z,31.70
2022-12-19T23:37:20.866Z,28.58
2022-12-19T23:39:50.426Z,37.75
2022-12-19T23:42:19.962Z,42.78
2022-12-19T23:44:49.715Z,49.40
2022-12-19T23:47:19.334Z,55.63
2022-12-19T23:49:48.871Z,54.95
2022-12-19T23:52:18.463Z,47.90
2022-12-19T23:54:49.007Z,50.40
2022-12-19T23:57:18.597Z,49.20
2022-12-19T23:59:48.223Z,45.88
